MST,Max TemperatureF,Mean TemperatureF,Min TemperatureF,Max Dew PointF,MeanDew PointF,Min DewpointF,Max Humidity, Mean Humidity, Min Humidity, Max Sea Level PressureIn, Mean Sea Level PressureIn, Min Sea Level PressureIn, Max VisibilityMiles, Mean VisibilityMiles, Min VisibilityMiles, Max Wind SpeedMPH, Mean Wind SpeedMPH, Max Gust SpeedMPH,PrecipitationIn, CloudCover, Events, WindDirDegrees
2012-2-1,41,31,21,17,14,7,68,50,32,30.20,30.12,30.03,10,10,9,9,3,13,0.00,1,,299
2012-2-2,33,29,24,30,25,17,100,84,68,30.35,30.18,30.05,10,3,0,15,5,,0.25,8,Fog-Snow,334
2012-2-3,30,23,15,25,20,11,100,84,68,30.54,30.40,30.26,10,5,1,8,2,,0.06,7,Snow,253
2012-2-4,32,21,9,20,12,8,84,71,57,30.60,30.53,30.46,10,10,10,10,2,,0.00,0,,178
2012-2-5,31,20,8,16,10,4,83,68,53,30.50,30.39,30.29,10,10,10,10,3,,0.00,1,,216
2012-2-6,32,21,10,21,16,5,96,75,53,30.44,30.34,30.25,10,7,2,6,2,,0.02,6,Snow,350
2012-2-7,28,21,13,21,16,7,100,82,63,30.43,30.32,30.15,10,7,2,10,5,,0.01,6,Snow,302
2012-2-8,32,21,10,17,12,5,84,69,53,30.35,30.27,30.21,10,10,9,5,1,,0.00,0,,241
2012-2-9,43,31,18,21,15,11,73,53,33,30.28,30.24,30.19,10,10,10,16,5,25,0.00,0,,114
2012-2-10,35,26,17,21,17,9,84,67,50,30.30,30.20,30.09,10,10,9,13,4,,0.00,5,,17
2012-2-11,24,21,17,18,15,12,84,76,68,30.33,30.24,30.09,10,9,5,10,3,,0.00,8,,331
2012-2-12,33,25,17,25,20,14,92,78,63,30.07,29.88,29.71,10,7,4,5,1,,T,7,Snow,163
2012-2-13,43,33,23,27,21,12,92,67,41,29.80,29.75,29.69,10,9,5,10,3,,0.00,4,,240
2012-2-14,44,31,18,21,15,10,84,56,27,29.87,29.74,29.62,10,10,10,16,4,22,0.00,1,,337
2012-2-15,36,27,17,15,12,9,73,56,38,30.19,30.04,29.87,10,10,10,10,5,,0.00,0,,221
2012-2-16,43,28,13,15,9,0,80,49,17,30.25,30.16,30.05,10,10,10,12,4,,0.00,0,,169
2012-2-17,41,32,22,17,13,10,68,51,33,30.17,30.12,30.04,10,10,10,10,5,,0.00,2,,202
2012-2-18,43,29,15,17,13,7,77,54,30,30.11,29.95,29.81,10,10,10,14,5,18,0.00,0,,175
2012-2-19,29,25,20,25,21,13,92,73,53,29.91,29.75,29.67,10,4,0,13,5,,0.20,7,Fog-Snow,17
2012-2-20,31,19,7,14,9,2,80,62,43,30.01,29.96,29.90,10,10,10,9,4,,0.00,1,,225
2012-2-21,46,32,17,24,16,8,67,52,36,29.94,29.82,29.65,10,10,10,10,4,17,0.00,1,,261
2012-2-22,52,39,25,30,24,21,89,61,32,29.67,29.52,29.33,10,8,0,39,15,64,0.13,3,Fog-Snow,314
2012-2-23,31,22,13,23,14,1,100,71,41,30.16,29.95,29.67,10,10,10,14,7,16,T,3,,147
2012-2-24,37,25,12,13,8,1,67,51,35,30.28,30.18,30.00,10,10,10,15,5,,0.00,0,,167
2012-2-25,42,30,18,24,11,-2,80,55,29,29.97,29.69,29.53,10,9,1,43,16,67,T,4,Snow,270
2012-2-26,37,27,17,5,-1,-5,49,35,20,30.12,29.99,29.79,10,10,10,14,6,21,0.00,1,,219
2012-2-27,36,25,13,20,9,1,76,54,32,30.09,29.96,29.83,10,10,10,7,3,,0.00,1,,250
2012-2-28,30,23,15,25,20,14,100,85,69,29.99,29.74,29.60,10,4,0,8,6,,0.20,6,Fog-Snow,232
2012-2-29,39,24,8,27,14,4,100,65,29,29.99,29.82,29.63,10,8,0,30,9,41,T,2,Fog-Snow,270